Time;durP1;ratioP1;P1;durP2;ratioP2;P2;SDS_P1;SDS_P2;PMS_P1;PMS_P2;Temp;Humidity;BMP_temperature;BMP_pressure;BME280_temperature;BME280_humidity;BME280_pressure;Samples;Min_cycle;Max_cycle;Signal;HPM_P1;HPM_P2
2022/01/15 00:01:40;;;;;;;;;;;22.50;28.20;;;;;;5089226;28;19963;-62
2022/01/15 00:04:08;;;;;;;;;;;22.50;28.20;;;;;;5090436;28;19963;-62
2022/01/15 00:06:35;;;;;;;;;;;22.50;28.20;;;;;;5091390;28;20085;-62
2022/01/15 00:09:02;;;;;;;;;;;22.40;28.10;;;;;;5089128;28;19974;-62
2022/01/15 00:11:29;;;;;;;;;;;22.50;28.20;;;;;;5088952;28;20003;-62
2022/01/15 00:14:12;;;;;;;;;;;22.50;28.20;;;;;;5090481;28;19920;-62
2022/01/15 00:16:48;;;;;;;;;;;22.50;28.20;;;;;;5090793;28;19952;-62
2022/01/15 00:19:17;;;;;;;;;;;22.50;28.20;;;;;;5091066;28;20416;-62
2022/01/15 00:21:44;;;;;;;;;;;22.50;28.20;;;;;;5090995;28;19963;-62
2022/01/15 00:24:11;;;;;;;;;;;22.50;28.20;;;;;;5090372;28;20039;-62
2022/01/15 00:26:38;;;;;;;;;;;22.50;28.20;;;;;;5090885;28;19927;-62
2022/01/15 00:29:05;;;;;;;;;;;22.50;28.20;;;;;;5088947;28;19920;-62
2022/01/15 00:31:34;;;;;;;;;;;22.50;28.20;;;;;;5070404;28;19936;-62
2022/01/15 00:34:01;;;;;;;;;;;22.50;28.20;;;;;;5089392;28;19978;-62
2022/01/15 00:36:28;;;;;;;;;;;22.50;28.20;;;;;;5090701;28;19992;-62
2022/01/15 00:38:55;;;;;;;;;;;22.50;28.20;;;;;;5088797;28;19971;-62
2022/01/15 00:41:21;;;;;;;;;;;22.50;28.20;;;;;;5088331;28;20445;-62
2022/01/15 00:43:49;;;;;;;;;;;22.50;28.20;;;;;;5089445;28;19965;-63
2022/01/15 00:46:16;;;;;;;;;;;22.50;28.20;;;;;;5090768;28;19926;-63
2022/01/15 00:48:43;;;;;;;;;;;22.50;28.20;;;;;;5088848;28;19927;-62
2022/01/15 00:51:10;;;;;;;;;;;22.50;28.20;;;;;;5087776;28;19975;-62
2022/01/15 00:53:37;;;;;;;;;;;22.40;28.20;;;;;;5089387;28;19920;-62
2022/01/15 00:56:04;;;;;;;;;;;22.40;28.10;;;;;;5090264;28;19970;-62
2022/01/15 00:58:31;;;;;;;;;;;22.40;28.20;;;;;;5088395;28;20018;-62
2022/01/15 01:00:58;;;;;;;;;;;22.40;28.10;;;;;;5087841;28;19969;-62
2022/01/15 01:03:25;;;;;;;;;;;22.50;28.20;;;;;;5088493;28;20303;-62
2022/01/15 01:05:52;;;;;;;;;;;22.40;28.10;;;;;;5090359;28;19920;-62
2022/01/15 01:08:19;;;;;;;;;;;22.40;28.20;;;;;;5088707;28;19927;-62
2022/01/15 01:10:57;;;;;;;;;;;22.40;28.10;;;;;;5087910;28;20014;-62
2022/01/15 01:20:03;;;;;;;;;;;22.40;28.10;;;;;;5088689;28;20359;-62
2022/01/15 01:24:49;;;;;;;;;;;22.40;28.20;;;;;;5090169;28;20098;-62
2022/01/15 01:27:28;;;;;;;;;;;22.40;28.20;;;;;;5089474;28;20003;-63
2022/01/15 01:32:42;;;;;;;;;;;22.40;28.20;;;;;;5070554;28;20003;-62
2022/01/15 01:35:14;;;;;;;;;;;22.40;28.20;;;;;;5089929;28;19920;-63
2022/01/15 01:37:47;;;;;;;;;;;22.40;28.30;;;;;;5089198;28;20325;-62
2022/01/15 01:40:22;;;;;;;;;;;22.40;28.30;;;;;;5087408;28;19974;-62
2022/01/15 01:43:00;;;;;;;;;;;22.40;28.30;;;;;;5087886;28;20409;-63
2022/01/15 01:45:28;;;;;;;;;;;22.40;28.30;;;;;;5089512;28;19982;-63
2022/01/15 01:47:55;;;;;;;;;;;22.40;28.30;;;;;;5089065;28;20352;-63
2022/01/15 01:50:23;;;;;;;;;;;22.40;28.30;;;;;;5087986;28;20040;-63
2022/01/15 01:52:52;;;;;;;;;;;22.40;28.30;;;;;;5087788;28;20334;-62
2022/01/15 01:55:22;;;;;;;;;;;22.40;28.30;;;;;;5089794;28;20360;-63
2022/01/15 01:57:50;;;;;;;;;;;22.40;28.30;;;;;;5088550;28;19965;-63
2022/01/15 02:03:49;;;;;;;;;;;22.40;28.30;;;;;;5088600;28;19915;-63
2022/01/15 02:06:17;;;;;;;;;;;22.40;28.30;;;;;;5089796;28;19920;-63
2022/01/15 02:08:44;;;;;;;;;;;22.40;28.30;;;;;;5069374;28;20078;-62
2022/01/15 02:11:12;;;;;;;;;;;22.40;28.30;;;;;;5087482;28;20003;-63
2022/01/15 02:13:39;;;;;;;;;;;22.40;28.30;;;;;;5090414;28;20297;-63
2022/01/15 02:16:07;;;;;;;;;;;22.40;28.30;;;;;;5093381;28;20366;-63
2022/01/15 02:18:35;;;;;;;;;;;22.40;28.30;;;;;;5091945;28;19927;-63
2022/01/15 02:27:26;;;;;;;;;;;22.40;28.30;;;;;;5092799;28;19942;-63
2022/01/15 02:29:52;;;;;;;;;;;22.40;28.20;;;;;;5091563;28;19920;-63
2022/01/15 02:32:19;;;;;;;;;;;22.40;28.30;;;;;;5090484;28;19924;-63
2022/01/15 02:34:46;;;;;;;;;;;22.40;28.30;;;;;;5092975;28;19920;-63
2022/01/15 02:37:13;;;;;;;;;;;22.40;28.30;;;;;;5092366;28;19955;-63
2022/01/15 02:39:40;;;;;;;;;;;22.40;28.30;;;;;;5090759;28;20171;-63
2022/01/15 02:42:07;;;;;;;;;;;22.40;28.30;;;;;;5090509;28;19966;-63
2022/01/15 02:44:38;;;;;;;;;;;22.30;28.30;;;;;;5092920;28;19942;-63
2022/01/15 02:49:42;;;;;;;;;;;22.40;28.30;;;;;;5090898;28;19975;-63
2022/01/15 02:52:09;;;;;;;;;;;22.30;28.30;;;;;;5090447;28;20366;-63
2022/01/15 02:54:36;;;;;;;;;;;22.30;28.30;;;;;;5108239;28;20016;-63
2022/01/15 02:57:06;;;;;;;;;;;22.30;28.30;;;;;;5092197;28;19962;-63
2022/01/15 02:59:33;;;;;;;;;;;22.30;28.30;;;;;;5090500;28;19970;-63
2022/01/15 03:02:00;;;;;;;;;;;22.30;28.30;;;;;;5090762;28;20037;-63
2022/01/15 03:04:27;;;;;;;;;;;22.30;28.20;;;;;;5092389;28;19924;-63
2022/01/15 03:06:54;;;;;;;;;;;22.30;28.20;;;;;;5092559;28;20019;-63
2022/01/15 03:09:21;;;;;;;;;;;22.30;28.30;;;;;;5089867;28;19959;-64
2022/01/15 03:11:48;;;;;;;;;;;22.30;28.30;;;;;;5090289;28;20140;-63
2022/01/15 03:14:18;;;;;;;;;;;22.30;28.30;;;;;;5092073;28;20018;-63
2022/01/15 03:16:45;;;;;;;;;;;22.30;28.20;;;;;;5092375;28;19924;-63
2022/01/15 03:19:32;;;;;;;;;;;22.30;28.30;;;;;;5091949;28;19927;-63
2022/01/15 03:21:59;;;;;;;;;;;22.30;28.30;;;;;;5091267;28;19967;-63
2022/01/15 03:24:26;;;;;;;;;;;22.30;28.30;;;;;;5091367;28;19964;-63
2022/01/15 03:26:53;;;;;;;;;;;22.20;28.30;;;;;;5092163;28;19927;-63
2022/01/15 03:29:20;;;;;;;;;;;22.20;28.30;;;;;;5089844;28;20161;-62
2022/01/15 03:31:47;;;;;;;;;;;22.20;28.30;;;;;;5089762;28;20022;-63
2022/01/15 03:34:14;;;;;;;;;;;22.20;28.30;;;;;;5073132;28;19967;-63
2022/01/15 03:36:41;;;;;;;;;;;22.20;28.30;;;;;;5091976;28;20376;-63
2022/01/15 03:39:08;;;;;;;;;;;22.20;28.30;;;;;;5089568;28;20007;-63
2022/01/15 03:41:35;;;;;;;;;;;22.20;28.30;;;;;;5089545;28;19966;-63
2022/01/15 03:44:02;;;;;;;;;;;22.20;28.30;;;;;;5090970;28;19923;-63
2022/01/15 03:46:30;;;;;;;;;;;22.20;28.30;;;;;;5073698;28;19920;-64
2022/01/15 03:48:57;;;;;;;;;;;22.20;28.30;;;;;;5089630;28;20319;-63
2022/01/15 03:51:24;;;;;;;;;;;22.20;28.30;;;;;;5089344;28;19981;-63
2022/01/15 03:53:51;;;;;;;;;;;22.20;28.30;;;;;;5090382;28;20353;-63
2022/01/15 03:56:18;;;;;;;;;;;22.20;28.30;;;;;;5091871;28;20342;-63
2022/01/15 03:58:45;;;;;;;;;;;22.20;28.30;;;;;;5091087;28;20094;-63
2022/01/15 04:01:12;;;;;;;;;;;22.30;28.40;;;;;;5091580;28;19973;-63
2022/01/15 04:03:39;;;;;;;;;;;22.20;28.30;;;;;;5090716;28;20026;-63
2022/01/15 04:06:06;;;;;;;;;;;22.20;28.30;;;;;;5091380;28;19924;-63
2022/01/15 04:08:33;;;;;;;;;;;22.30;28.40;;;;;;5089550;28;19963;-63
2022/01/15 04:11:00;;;;;;;;;;;22.30;28.30;;;;;;5088677;28;19926;-63
2022/01/15 04:13:27;;;;;;;;;;;22.20;28.30;;;;;;5090080;28;19942;-63
2022/01/15 04:15:54;;;;;;;;;;;22.20;28.30;;;;;;5091327;28;19920;-63
2022/01/15 04:18:23;;;;;;;;;;;22.20;28.30;;;;;;5089879;28;19924;-63
2022/01/15 04:20:51;;;;;;;;;;;22.20;28.30;;;;;;5088623;28;20012;-63
2022/01/15 04:23:18;;;;;;;;;;;22.20;28.30;;;;;;5089565;28;20310;-63
2022/01/15 04:25:45;;;;;;;;;;;22.20;28.40;;;;;;5090850;28;20133;-63
2022/01/15 04:28:12;;;;;;;;;;;22.20;28.40;;;;;;5089609;28;19946;-63
2022/01/15 04:30:41;;;;;;;;;;;22.20;28.40;;;;;;5088798;28;19924;-63
2022/01/15 04:33:08;;;;;;;;;;;22.20;28.40;;;;;;5089054;28;19970;-63
2022/01/15 04:35:35;;;;;;;;;;;22.20;28.40;;;;;;5090605;28;19970;-64
2022/01/15 04:38:07;;;;;;;;;;;22.20;28.40;;;;;;5070666;28;19962;-63
2022/01/15 04:40:34;;;;;;;;;;;22.20;28.40;;;;;;5088134;28;20394;-65
2022/01/15 04:43:01;;;;;;;;;;;22.20;28.40;;;;;;5089049;28;20020;-63
2022/01/15 04:45:28;;;;;;;;;;;22.20;28.50;;;;;;5090425;28;20384;-63
2022/01/15 04:47:55;;;;;;;;;;;22.20;28.50;;;;;;5090086;28;19920;-63
2022/01/15 04:50:22;;;;;;;;;;;22.20;28.50;;;;;;5088349;28;20007;-63
2022/01/15 04:52:49;;;;;;;;;;;22.20;28.40;;;;;;5088642;28;20014;-63
2022/01/15 04:55:16;;;;;;;;;;;22.10;28.40;;;;;;5090749;28;19924;-63
2022/01/15 04:57:43;;;;;;;;;;;22.20;28.40;;;;;;5089625;28;20011;-63
2022/01/15 05:00:12;;;;;;;;;;;22.10;28.40;;;;;;5087977;28;19920;-63
2022/01/15 05:02:39;;;;;;;;;;;22.20;28.40;;;;;;5088358;28;19955;-63
2022/01/15 05:05:06;;;;;;;;;;;22.10;28.40;;;;;;5090575;28;20355;-63
2022/01/15 05:07:33;;;;;;;;;;;22.10;28.40;;;;;;5089665;28;20006;-63
2022/01/15 05:10:00;;;;;;;;;;;22.20;28.50;;;;;;5087892;28;20372;-63
2022/01/15 05:12:31;;;;;;;;;;;22.10;28.40;;;;;;5087926;28;19924;-63
2022/01/15 05:14:58;;;;;;;;;;;22.10;28.40;;;;;;5089997;28;20402;-63
2022/01/15 05:17:26;;;;;;;;;;;22.10;28.40;;;;;;5089877;28;19928;-63
2022/01/15 05:19:53;;;;;;;;;;;22.10;28.40;;;;;;5087698;28;20404;-63
2022/01/15 05:22:20;;;;;;;;;;;22.10;28.40;;;;;;5087590;28;19924;-62
2022/01/15 05:24:46;;;;;;;;;;;22.10;28.40;;;;;;5090182;28;20018;-62
2022/01/15 05:27:13;;;;;;;;;;;22.10;28.40;;;;;;5089786;28;19959;-62
2022/01/15 05:29:41;;;;;;;;;;;22.10;28.40;;;;;;5087851;28;19966;-62
2022/01/15 05:32:07;;;;;;;;;;;22.10;28.40;;;;;;5087436;28;19971;-62
2022/01/15 05:34:38;;;;;;;;;;;22.10;28.40;;;;;;5089714;28;19920;-62
2022/01/15 05:37:06;;;;;;;;;;;22.10;28.40;;;;;;5089035;28;20420;-62
2022/01/15 05:39:33;;;;;;;;;;;22.10;28.40;;;;;;5087866;28;20163;-62
2022/01/15 05:42:00;;;;;;;;;;;22.10;28.40;;;;;;5103070;28;19993;-62
2022/01/15 05:44:27;;;;;;;;;;;22.10;28.80;;;;;;5089881;28;19946;-62
2022/01/15 05:46:54;;;;;;;;;;;22.10;28.40;;;;;;5089408;28;19928;-63
2022/01/15 05:49:21;;;;;;;;;;;22.10;28.40;;;;;;5091031;28;19920;-62
2022/01/15 05:51:48;;;;;;;;;;;22.10;28.40;;;;;;5091560;28;20092;-62
2022/01/15 05:54:15;;;;;;;;;;;22.10;28.40;;;;;;5093211;28;20377;-62
2022/01/15 05:56:42;;;;;;;;;;;22.10;28.40;;;;;;5094016;28;20425;-62
2022/01/15 05:59:09;;;;;;;;;;;22.10;28.40;;;;;;5091982;28;20027;-62
2022/01/15 06:01:37;;;;;;;;;;;22.10;28.40;;;;;;5091580;28;19967;-62
2022/01/15 06:04:04;;;;;;;;;;;22.10;28.40;;;;;;5093093;28;20056;-62
2022/01/15 06:06:32;;;;;;;;;;;22.10;28.50;;;;;;5093719;28;19963;-62
2022/01/15 06:08:59;;;;;;;;;;;22.10;28.50;;;;;;5091263;28;19993;-63
2022/01/15 06:11:27;;;;;;;;;;;22.00;28.40;;;;;;5091563;28;19924;-63
2022/01/15 06:13:54;;;;;;;;;;;22.00;28.40;;;;;;5092802;28;20007;-62
2022/01/15 06:16:21;;;;;;;;;;;22.00;28.40;;;;;;5093231;28;20015;-62
2022/01/15 06:18:48;;;;;;;;;;;22.00;28.40;;;;;;5091773;28;20000;-62
2022/01/15 06:21:15;;;;;;;;;;;22.00;28.40;;;;;;5091175;28;20427;-62
2022/01/15 06:23:42;;;;;;;;;;;22.00;28.40;;;;;;5092044;28;19983;-63
2022/01/15 06:26:09;;;;;;;;;;;22.00;28.30;;;;;;5093217;28;19920;-62
2022/01/15 06:28:36;;;;;;;;;;;22.00;28.30;;;;;;5091199;28;19963;-62
2022/01/15 06:31:03;;;;;;;;;;;22.10;28.30;;;;;;5090949;28;20426;-62
2022/01/15 06:33:31;;;;;;;;;;;22.10;28.20;;;;;;5091709;28;19943;-62
2022/01/15 06:35:58;;;;;;;;;;;22.10;28.20;;;;;;5093408;28;20007;-63
2022/01/15 06:38:25;;;;;;;;;;;22.20;28.10;;;;;;5091296;28;19959;-62
2022/01/15 06:40:52;;;;;;;;;;;22.20;28.10;;;;;;5090752;28;20327;-62
2022/01/15 06:43:19;;;;;;;;;;;22.30;28.10;;;;;;5091184;28;19968;-62
2022/01/15 06:45:46;;;;;;;;;;;22.30;28.10;;;;;;5092657;28;20163;-62
2022/01/15 06:48:14;;;;;;;;;;;22.40;28.00;;;;;;5091572;28;19927;-62
2022/01/15 06:50:42;;;;;;;;;;;22.50;28.00;;;;;;5090556;28;19947;-62
2022/01/15 06:53:09;;;;;;;;;;;22.50;27.90;;;;;;5090802;28;20095;-62
2022/01/15 06:55:36;;;;;;;;;;;22.60;27.80;;;;;;5093354;28;19973;-62
2022/01/15 06:58:03;;;;;;;;;;;22.70;27.80;;;;;;5091515;28;20428;-62
2022/01/15 07:03:52;;;;;;;;;;;22.80;27.70;;;;;;5091759;28;19961;-62
2022/01/15 07:06:18;;;;;;;;;;;22.90;27.60;;;;;;5092573;28;20329;-62
2022/01/15 07:08:46;;;;;;;;;;;22.90;27.60;;;;;;5090301;28;20027;-62
2022/01/15 07:11:13;;;;;;;;;;;23.00;27.50;;;;;;5090214;28;19920;-62
2022/01/15 07:13:40;;;;;;;;;;;23.10;27.50;;;;;;5091203;28;20348;-62
2022/01/15 07:16:07;;;;;;;;;;;23.10;27.40;;;;;;5091815;28;19975;-62
2022/01/15 07:18:34;;;;;;;;;;;23.10;27.30;;;;;;5090830;28;19927;-62
2022/01/15 07:21:01;;;;;;;;;;;23.20;27.30;;;;;;5089878;28;20277;-63
2022/01/15 07:23:28;;;;;;;;;;;23.30;27.20;;;;;;5090765;28;19920;-62
2022/01/15 07:25:55;;;;;;;;;;;23.30;27.10;;;;;;5092191;28;20007;-62
2022/01/15 07:28:24;;;;;;;;;;;23.40;27.10;;;;;;5090812;28;20265;-62
2022/01/15 07:30:51;;;;;;;;;;;23.50;27.10;;;;;;5089684;28;19967;-62
2022/01/15 07:33:18;;;;;;;;;;;23.50;27.00;;;;;;5090404;28;19920;-62
2022/01/15 07:42:49;;;;;;;;;;;23.70;26.90;;;;;;5090085;28;20094;-62
2022/01/15 07:45:17;;;;;;;;;;;23.70;26.80;;;;;;5073889;28;20064;-62
2022/01/15 07:47:44;;;;;;;;;;;23.80;26.80;;;;;;5090744;28;20000;-62
2022/01/15 07:50:12;;;;;;;;;;;23.80;26.80;;;;;;5089485;28;20011;-62
2022/01/15 07:52:39;;;;;;;;;;;23.80;26.70;;;;;;5089049;28;19958;-62
2022/01/15 07:58:28;;;;;;;;;;;23.80;26.70;;;;;;5089582;28;19930;-62
2022/01/15 08:00:55;;;;;;;;;;;23.80;26.70;;;;;;5089376;28;20557;-62
2022/01/15 08:03:28;;;;;;;;;;;23.80;26.70;;;;;;5089708;28;19923;-62
2022/01/15 08:05:55;;;;;;;;;;;23.80;26.70;;;;;;5091777;28;19969;-62
2022/01/15 08:08:22;;;;;;;;;;;23.80;26.70;;;;;;5089836;28;20006;-62
2022/01/15 08:10:49;;;;;;;;;;;23.80;26.70;;;;;;5088594;28;20428;-62
2022/01/15 08:13:16;;;;;;;;;;;23.70;26.70;;;;;;5089698;28;19977;-62
2022/01/15 08:15:43;;;;;;;;;;;23.80;26.70;;;;;;5091082;28;19920;-62
2022/01/15 08:18:11;;;;;;;;;;;23.70;26.70;;;;;;5089852;28;19981;-62
2022/01/15 08:20:42;;;;;;;;;;;23.70;26.70;;;;;;5089131;28;19961;-62
2022/01/15 08:23:09;;;;;;;;;;;23.70;26.70;;;;;;5089459;28;20402;-62
2022/01/15 08:25:36;;;;;;;;;;;23.70;26.70;;;;;;5091370;28;20092;-62
2022/01/15 08:28:03;;;;;;;;;;;23.70;26.70;;;;;;5089280;28;19967;-62
2022/01/15 08:30:30;;;;;;;;;;;23.70;26.70;;;;;;5089033;28;20015;-62
2022/01/15 08:32:57;;;;;;;;;;;23.60;27.10;;;;;;5089008;28;19964;-62
2022/01/15 08:35:25;;;;;;;;;;;23.60;26.70;;;;;;5090682;28;20273;-62
2022/01/15 08:37:54;;;;;;;;;;;23.60;26.70;;;;;;5090090;28;19967;-62
2022/01/15 08:40:21;;;;;;;;;;;23.60;26.70;;;;;;5088212;28;19971;-62
2022/01/15 08:42:48;;;;;;;;;;;23.60;26.70;;;;;;5088627;28;20065;-62
2022/01/15 08:45:16;;;;;;;;;;;23.60;26.70;;;;;;5090459;28;19965;-62
2022/01/15 08:47:43;;;;;;;;;;;23.60;26.70;;;;;;5089646;28;20230;-62
2022/01/15 08:53:56;;;;;;;;;;;23.70;26.70;;;;;;5089486;28;20040;-62
2022/01/15 08:56:23;;;;;;;;;;;23.60;26.70;;;;;;5072269;28;20384;-62
2022/01/15 08:58:50;;;;;;;;;;;23.70;26.80;;;;;;5088741;28;20178;-62
2022/01/15 09:01:17;;;;;;;;;;;23.70;26.80;;;;;;5088368;28;19978;-63
2022/01/15 09:03:44;;;;;;;;;;;23.70;26.70;;;;;;5071509;28;19920;-62
2022/01/15 09:06:12;;;;;;;;;;;23.70;26.80;;;;;;5090353;28;20361;-62
2022/01/15 09:08:39;;;;;;;;;;;23.70;26.80;;;;;;5104058;28;19955;-62
2022/01/15 09:11:06;;;;;;;;;;;23.70;26.80;;;;;;5088327;28;19966;-62
2022/01/15 09:13:33;;;;;;;;;;;23.60;26.80;;;;;;5088878;28;20014;-63
2022/01/15 09:16:02;;;;;;;;;;;23.70;26.90;;;;;;5089963;28;20163;-63
2022/01/15 09:18:29;;;;;;;;;;;23.70;26.90;;;;;;5088612;28;20377;-63
2022/01/15 09:20:56;;;;;;;;;;;23.70;26.90;;;;;;5088143;28;20039;-62
2022/01/15 09:23:23;;;;;;;;;;;23.70;26.90;;;;;;5087937;28;20266;-62
2022/01/15 09:25:50;;;;;;;;;;;23.70;26.90;;;;;;5072235;28;20074;-62
2022/01/15 09:31:04;;;;;;;;;;;23.60;26.90;;;;;;5087947;28;19920;-62
2022/01/15 09:33:31;;;;;;;;;;;23.70;26.90;;;;;;5088958;28;19970;-62
2022/01/15 09:35:58;;;;;;;;;;;23.80;26.90;;;;;;5090283;28;19942;-62
2022/01/15 09:38:25;;;;;;;;;;;23.70;26.80;;;;;;5088300;28;20380;-62
2022/01/15 09:40:54;;;;;;;;;;;23.80;26.80;;;;;;5069770;28;19947;-63
2022/01/15 09:43:22;;;;;;;;;;;23.80;26.80;;;;;;5088429;28;20046;-62
2022/01/15 09:49:00;;;;;;;;;;;23.80;26.70;;;;;;5087797;28;19920;-62
2022/01/15 09:51:29;;;;;;;;;;;23.80;26.70;;;;;;5087835;28;19927;-62
2022/01/15 09:53:56;;;;;;;;;;;23.80;27.20;;;;;;5088836;28;20023;-62
2022/01/15 09:56:23;;;;;;;;;;;23.80;26.70;;;;;;5089515;28;20288;-62
2022/01/15 09:58:52;;;;;;;;;;;23.90;26.70;;;;;;5087617;28;19920;-61
2022/01/15 10:01:20;;;;;;;;;;;23.80;26.70;;;;;;5087635;28;20183;-61
2022/01/15 10:03:47;;;;;;;;;;;23.80;26.70;;;;;;5088622;28;20085;-63
2022/01/15 10:06:14;;;;;;;;;;;23.80;26.70;;;;;;5089685;28;20056;-62
2022/01/15 10:08:57;;;;;;;;;;;23.90;26.70;;;;;;5088293;28;19920;-62
2022/01/15 10:11:44;;;;;;;;;;;23.80;26.70;;;;;;5087267;28;19973;-62
2022/01/15 10:14:25;;;;;;;;;;;23.90;26.70;;;;;;5089179;28;19959;-62
2022/01/15 10:16:52;;;;;;;;;;;23.90;26.70;;;;;;5089511;28;20300;-62
2022/01/15 10:19:27;;;;;;;;;;;23.90;26.70;;;;;;5087431;28;20361;-62
2022/01/15 10:22:11;;;;;;;;;;;23.90;26.70;;;;;;5087723;28;19959;-63
2022/01/15 10:24:39;;;;;;;;;;;23.90;26.70;;;;;;5089472;28;19966;-62
2022/01/15 10:27:20;;;;;;;;;;;23.90;26.70;;;;;;5089181;28;20265;-62
2022/01/15 10:29:51;;;;;;;;;;;23.90;26.70;;;;;;5086980;28;19967;-62
2022/01/15 10:32:18;;;;;;;;;;;23.90;26.70;;;;;;5085658;28;19946;-62
2022/01/15 10:34:45;;;;;;;;;;;23.90;26.70;;;;;;5091206;28;20179;-63
2022/01/15 10:37:13;;;;;;;;;;;23.90;26.70;;;;;;5092828;28;20345;-62
2022/01/15 10:39:52;;;;;;;;;;;23.90;26.70;;;;;;5090948;28;19920;-63
2022/01/15 10:49:23;;;;;;;;;;;24.00;26.70;;;;;;5091317;28;19934;-62
2022/01/15 10:52:07;;;;;;;;;;;24.00;26.70;;;;;;5090397;28;19962;-62
2022/01/15 10:54:37;;;;;;;;;;;24.00;26.70;;;;;;5092795;28;19920;-65
2022/01/15 10:57:05;;;;;;;;;;;24.00;26.70;;;;;;5092544;28;20459;-62
2022/01/15 10:59:32;;;;;;;;;;;24.00;26.70;;;;;;5090325;28;19920;-62
2022/01/15 11:02:15;;;;;;;;;;;24.00;26.70;;;;;;5090398;28;19951;-62
2022/01/15 11:04:42;;;;;;;;;;;24.00;26.60;;;;;;5092337;28;19973;-62
2022/01/15 11:07:10;;;;;;;;;;;24.00;26.60;;;;;;5091973;28;19971;-63
2022/01/15 11:09:37;;;;;;;;;;;24.00;26.60;;;;;;5090691;28;20438;-64
2022/01/15 11:12:05;;;;;;;;;;;24.00;26.60;;;;;;5089754;28;20688;-62
2022/01/15 11:14:32;;;;;;;;;;;24.10;26.60;;;;;;5092105;28;19946;-62
2022/01/15 11:16:59;;;;;;;;;;;24.10;26.60;;;;;;5073783;28;20022;-62
2022/01/15 11:19:29;;;;;;;;;;;24.10;26.60;;;;;;5090255;28;20376;-62
2022/01/15 11:21:57;;;;;;;;;;;24.10;26.50;;;;;;5089617;28;20419;-62
2022/01/15 11:24:25;;;;;;;;;;;24.10;26.50;;;;;;5091664;28;19965;-62
2022/01/15 11:26:55;;;;;;;;;;;24.10;26.50;;;;;;5091828;28;20011;-62
2022/01/15 11:29:22;;;;;;;;;;;24.10;26.50;;;;;;5089781;28;20110;-62
2022/01/15 11:31:59;;;;;;;;;;;24.10;26.40;;;;;;5089734;28;19962;-63
2022/01/15 11:34:27;;;;;;;;;;;24.10;26.40;;;;;;5091553;28;19920;-62
2022/01/15 11:36:55;;;;;;;;;;;24.10;26.40;;;;;;5092097;28;20016;-62
2022/01/15 11:39:32;;;;;;;;;;;24.10;26.40;;;;;;5089438;28;19963;-62
2022/01/15 11:42:01;;;;;;;;;;;24.10;26.40;;;;;;5089196;28;20396;-62
2022/01/15 11:44:39;;;;;;;;;;;24.10;26.30;;;;;;5092010;28;20303;-62
2022/01/15 11:47:15;;;;;;;;;;;24.20;26.40;;;;;;5090605;28;19959;-62
2022/01/15 11:49:44;;;;;;;;;;;24.10;26.30;;;;;;5089270;28;19951;-62
2022/01/15 11:52:29;;;;;;;;;;;24.20;26.40;;;;;;5089125;28;19920;-63
2022/01/15 11:55:10;;;;;;;;;;;24.20;26.30;;;;;;5091475;28;19966;-62
2022/01/15 11:57:45;;;;;;;;;;;24.20;26.30;;;;;;5090988;28;19928;-62
2022/01/15 12:00:16;;;;;;;;;;;24.20;26.30;;;;;;5088974;28;20019;-62
2022/01/15 12:02:55;;;;;;;;;;;24.20;26.30;;;;;;5089423;28;19923;-62
2022/01/15 12:05:27;;;;;;;;;;;24.20;26.20;;;;;;5091444;28;20076;-63
2022/01/15 12:08:13;;;;;;;;;;;24.20;26.20;;;;;;5072473;28;19920;-63
2022/01/15 12:10:45;;;;;;;;;;;24.20;26.20;;;;;;5057336;28;19988;-62
2022/01/15 12:16:36;;;;;;;;;;;24.20;26.20;;;;;;5091291;28;19969;-62
2022/01/15 12:19:05;;;;;;;;;;;24.20;26.20;;;;;;5088764;28;19924;-62
2022/01/15 12:21:49;;;;;;;;;;;24.20;26.10;;;;;;5071261;28;19955;-62
2022/01/15 12:24:36;;;;;;;;;;;24.20;26.10;;;;;;5090633;28;20430;-62
2022/01/15 12:27:03;;;;;;;;;;;24.20;26.10;;;;;;5091079;28;20309;-62
2022/01/15 12:29:30;;;;;;;;;;;24.20;26.10;;;;;;5088781;28;19959;-62
2022/01/15 12:31:57;;;;;;;;;;;24.20;26.10;;;;;;5089075;28;19920;-62
2022/01/15 12:34:25;;;;;;;;;;;24.20;26.10;;;;;;5089763;28;19927;-62
2022/01/15 12:36:52;;;;;;;;;;;24.20;26.10;;;;;;5090521;28;20164;-62
2022/01/15 12:39:36;;;;;;;;;;;24.20;26.10;;;;;;5088589;28;20432;-62
2022/01/15 12:42:04;;;;;;;;;;;24.20;26.10;;;;;;5087848;28;19971;-63
2022/01/15 12:44:39;;;;;;;;;;;24.20;26.10;;;;;;5090547;28;20010;-62
2022/01/15 12:47:06;;;;;;;;;;;24.20;26.10;;;;;;5089929;28;19931;-62
2022/01/15 12:49:40;;;;;;;;;;;24.20;26.00;;;;;;5088565;28;20033;-62
2022/01/15 12:52:08;;;;;;;;;;;24.20;26.00;;;;;;5088472;28;19965;-62
2022/01/15 12:54:35;;;;;;;;;;;24.20;26.00;;;;;;5090219;28;19920;-62
2022/01/15 12:57:03;;;;;;;;;;;24.20;26.00;;;;;;5090104;28;19927;-62
2022/01/15 12:59:30;;;;;;;;;;;24.20;25.90;;;;;;5087975;28;20163;-62
2022/01/15 13:01:57;;;;;;;;;;;24.20;25.90;;;;;;5088197;28;19989;-63
2022/01/15 13:04:24;;;;;;;;;;;24.20;25.90;;;;;;5090200;28;19927;-62
2022/01/15 13:06:57;;;;;;;;;;;24.20;25.90;;;;;;5090224;28;20007;-63
2022/01/15 13:09:37;;;;;;;;;;;24.20;25.90;;;;;;5088504;28;19963;-62
2022/01/15 13:12:06;;;;;;;;;;;24.20;25.90;;;;;;5087904;28;19986;-62
2022/01/15 13:14:41;;;;;;;;;;;24.20;25.80;;;;;;5090484;28;19971;-62
2022/01/15 13:17:19;;;;;;;;;;;24.20;25.80;;;;;;5089969;28;20345;-62
2022/01/15 13:19:46;;;;;;;;;;;24.20;25.80;;;;;;5087651;28;20014;-63
2022/01/15 13:22:18;;;;;;;;;;;24.20;25.80;;;;;;5087808;28;20014;-63
2022/01/15 13:24:45;;;;;;;;;;;24.20;25.80;;;;;;5090013;28;19946;-62
2022/01/15 13:27:12;;;;;;;;;;;24.10;25.70;;;;;;5089621;28;19920;-62
2022/01/15 13:29:42;;;;;;;;;;;24.10;25.70;;;;;;5103250;28;19927;-62
2022/01/15 13:32:09;;;;;;;;;;;24.10;25.70;;;;;;5087841;28;19928;-63
2022/01/15 13:34:36;;;;;;;;;;;24.10;25.70;;;;;;5089916;28;20006;-62
2022/01/15 13:37:08;;;;;;;;;;;24.10;25.70;;;;;;5089518;28;20434;-63
2022/01/15 13:39:36;;;;;;;;;;;24.10;25.70;;;;;;5088251;28;20497;-62
2022/01/15 13:42:03;;;;;;;;;;;24.10;25.70;;;;;;5087284;28;20014;-63
2022/01/15 13:44:32;;;;;;;;;;;24.10;25.70;;;;;;5089628;28;19924;-62
2022/01/15 13:47:06;;;;;;;;;;;24.10;25.70;;;;;;5089773;28;19952;-62
2022/01/15 13:53:04;;;;;;;;;;;24.10;25.70;;;;;;5087340;28;19920;-62
2022/01/15 13:55:23;;;;;;;;;;;24.10;25.70;;;;;;5089538;28;20011;-63
2022/01/15 13:58:06;;;;;;;;;;;24.10;25.70;;;;;;5089106;28;19973;-62
2022/01/15 14:00:33;;;;;;;;;;;24.10;25.70;;;;;;5087338;28;19920;-62
2022/01/15 14:06:28;;;;;;;;;;;24.10;25.70;;;;;;5089574;28;20178;-63
2022/01/15 14:08:59;;;;;;;;;;;24.10;25.60;;;;;;5088914;28;20331;-62
2022/01/15 14:11:28;;;;;;;;;;;24.10;25.70;;;;;;5072890;28;20369;-62
2022/01/15 14:14:03;;;;;;;;;;;24.00;25.70;;;;;;5092680;28;20311;-62
2022/01/15 14:16:30;;;;;;;;;;;24.00;25.70;;;;;;5093781;28;20019;-62
2022/01/15 14:19:14;;;;;;;;;;;24.00;25.80;;;;;;5091667;28;19927;-62
2022/01/15 14:21:42;;;;;;;;;;;24.00;25.80;;;;;;5091454;28;20552;-62
2022/01/15 14:24:16;;;;;;;;;;;24.00;25.80;;;;;;5092618;28;19973;-62
2022/01/15 14:26:47;;;;;;;;;;;24.00;25.80;;;;;;5093116;28;19977;-62
2022/01/15 14:29:15;;;;;;;;;;;24.00;25.80;;;;;;5091182;28;20023;-62
2022/01/15 14:31:42;;;;;;;;;;;24.00;25.80;;;;;;5090904;28;19950;-62
2022/01/15 14:34:09;;;;;;;;;;;24.00;25.80;;;;;;5092697;28;20012;-61
2022/01/15 14:36:36;;;;;;;;;;;24.00;25.80;;;;;;5092997;28;20441;-65
2022/01/15 14:39:04;;;;;;;;;;;24.00;25.80;;;;;;5093259;28;19920;-62
2022/01/15 14:41:35;;;;;;;;;;;23.90;25.70;;;;;;5093275;28;19924;-62
2022/01/15 14:44:03;;;;;;;;;;;23.90;25.90;;;;;;5092423;28;19974;-62
2022/01/15 14:46:30;;;;;;;;;;;23.90;25.70;;;;;;5093112;28;19934;-62
2022/01/15 14:48:58;;;;;;;;;;;23.90;25.70;;;;;;5091329;28;19923;-62
2022/01/15 14:51:25;;;;;;;;;;;23.90;25.70;;;;;;5090562;28;19965;-62
2022/01/15 14:53:56;;;;;;;;;;;23.90;26.10;;;;;;5091607;28;19959;-62
2022/01/15 14:56:23;;;;;;;;;;;23.90;25.70;;;;;;5092474;28;20447;-62
2022/01/15 14:58:50;;;;;;;;;;;23.90;25.70;;;;;;5090695;28;20066;-62
2022/01/15 15:01:17;;;;;;;;;;;23.90;25.70;;;;;;5089900;28;19971;-62
2022/01/15 15:03:44;;;;;;;;;;;23.80;25.70;;;;;;5091494;28;20015;-62
2022/01/15 15:06:12;;;;;;;;;;;23.90;25.70;;;;;;5092312;28;19963;-62
2022/01/15 15:08:39;;;;;;;;;;;23.80;25.70;;;;;;5090693;28;19926;-62
2022/01/15 15:11:06;;;;;;;;;;;23.80;25.70;;;;;;5089882;28;19920;-62
2022/01/15 15:13:33;;;;;;;;;;;23.80;25.70;;;;;;5091291;28;19966;-62
2022/01/15 15:18:58;;;;;;;;;;;23.80;25.80;;;;;;5090067;28;20209;-62
2022/01/15 15:21:25;;;;;;;;;;;23.80;25.80;;;;;;5089139;28;19959;-62
2022/01/15 15:23:52;;;;;;;;;;;23.80;25.80;;;;;;5091375;28;19924;-61
2022/01/15 15:26:20;;;;;;;;;;;23.70;25.80;;;;;;5091927;28;19967;-62
2022/01/15 15:28:49;;;;;;;;;;;23.70;25.80;;;;;;5092173;28;20332;-62
2022/01/15 15:31:16;;;;;;;;;;;23.70;25.80;;;;;;5107830;28;19919;-62
2022/01/15 15:33:47;;;;;;;;;;;23.70;25.80;;;;;;5091899;28;19943;-61